createdAt,value
2022-09-15T00:00:12.743Z,95319.22
2022-09-15T00:02:39.730Z,95322.06
2022-09-15T00:05:07.273Z,95320.09
2022-09-15T00:07:34.692Z,95314.75
2022-09-15T00:10:01.832Z,95316.19
2022-09-15T00:12:29.991Z,95308.47
2022-09-15T00:14:56.992Z,95311.50
2022-09-15T00:17:24.312Z,95312.78
2022-09-15T00:19:51.633Z,95312.34
2022-09-15T00:22:20.092Z,95302.69
2022-09-15T00:24:49.574Z,95292.38
2022-09-15T00:27:17.232Z,95275.25
2022-09-15T00:29:44.453Z,95265.59
2022-09-15T00:32:11.472Z,95258.47
2022-09-15T00:34:38.500Z,95253.47
2022-09-15T00:37:05.976Z,95252.81
2022-09-15T00:39:32.992Z,95245.59
2022-09-15T00:42:00.036Z,95264.03
2022-09-15T00:44:35.933Z,95270.13
2022-09-15T00:47:19.338Z,95287.81
2022-09-15T00:49:49.653Z,95297.19
2022-09-15T00:52:43.972Z,95299.31
2022-09-15T00:55:35.272Z,95294.97
2022-09-15T00:58:09.017Z,95311.56
2022-09-15T01:00:37.017Z,95319.22
2022-09-15T01:03:04.752Z,95321.75
2022-09-15T01:05:51.213Z,95325.66
2022-09-15T01:08:28.632Z,95313.25
2022-09-15T01:10:56.660Z,95289.19
2022-09-15T01:13:23.591Z,95302.59
2022-09-15T01:16:11.832Z,95295.72
2022-09-15T01:18:50.313Z,95306.34
2022-09-15T01:21:20.492Z,95306.22
2022-09-15T01:24:01.032Z,95297.56
2022-09-15T01:26:34.072Z,95299.13
2022-09-15T01:29:06.874Z,95304.44
2022-09-15T01:32:34.552Z,95311.34
2022-09-15T01:35:11.708Z,95311.78
2022-09-15T01:37:46.412Z,95319.47
2022-09-15T01:40:16.587Z,95322.56
2022-09-15T01:42:45.772Z,95327.56
2022-09-15T01:45:20.035Z,95338.88
2022-09-15T01:47:50.293Z,95337.16
2022-09-15T01:50:22.892Z,95336.25
2022-09-15T01:52:55.252Z,95338.75
2022-09-15T01:55:28.074Z,95341.41
2022-09-15T01:57:55.172Z,95337.19
2022-09-15T02:00:22.133Z,95331.44
2022-09-15T02:02:58.992Z,95328.31
2022-09-15T02:05:41.672Z,95327.38
2022-09-15T02:08:25.294Z,95324.41
2022-09-15T02:10:57.232Z,95316.31
2022-09-15T02:13:43.052Z,95298.84
2022-09-15T02:16:20.283Z,95308.44
2022-09-15T02:19:12.518Z,95313.75
2022-09-15T02:22:11.494Z,95306.88
2022-09-15T02:24:44.213Z,95300.75
2022-09-15T02:27:22.203Z,95306.09
2022-09-15T02:29:50.352Z,95310.34
2022-09-15T02:32:19.552Z,95303.94
2022-09-15T02:34:51.656Z,95299.59
2022-09-15T02:37:22.174Z,95303.94
2022-09-15T02:39:53.773Z,95305.38
2022-09-15T02:42:29.672Z,95298.50
2022-09-15T02:44:57.431Z,95297.06
2022-09-15T02:47:25.031Z,95298.94
2022-09-15T02:49:52.292Z,95314.09
2022-09-15T02:52:19.352Z,95316.44
2022-09-15T02:54:46.379Z,95310.50
2022-09-15T02:57:16.694Z,95290.00
2022-09-15T03:00:02.360Z,95288.91
2022-09-15T03:02:30.022Z,95298.44
2022-09-15T03:04:57.111Z,95309.09
2022-09-15T03:07:25.134Z,95305.31
2022-09-15T03:09:52.132Z,95300.75
2022-09-15T03:12:19.162Z,95290.91
2022-09-15T03:14:47.310Z,95294.22
2022-09-15T03:17:14.256Z,95295.97
2022-09-15T03:19:41.314Z,95298.63
2022-09-15T03:22:09.632Z,95309.25
2022-09-15T03:24:39.692Z,95294.63
2022-09-15T03:27:06.752Z,95299.91
2022-09-15T03:29:33.752Z,95298.22
2022-09-15T03:32:00.969Z,95303.41
2022-09-15T03:34:27.992Z,95297.97
2022-09-15T03:36:54.940Z,95298.28
2022-09-15T03:39:21.972Z,95302.22
2022-09-15T03:41:48.972Z,95303.78
2022-09-15T03:44:16.093Z,95301.75
2022-09-15T03:46:43.212Z,95293.16
2022-09-15T03:49:10.353Z,95295.06
2022-09-15T03:51:37.272Z,95286.31
2022-09-15T03:54:04.432Z,95274.63
2022-09-15T03:56:33.216Z,95266.53
2022-09-15T03:59:02.354Z,95254.34
2022-09-15T04:01:30.731Z,95263.88
2022-09-15T04:03:58.672Z,95262.03
2022-09-15T04:06:27.036Z,95257.34
2022-09-15T04:08:54.412Z,95248.75
2022-09-15T04:11:22.437Z,95246.72
2022-09-15T04:13:50.192Z,95240.94
2022-09-15T04:16:20.253Z,95239.72
2022-09-15T04:18:47.393Z,95242.22
2022-09-15T04:21:17.521Z,95240.66
2022-09-15T04:23:45.476Z,95239.88
2022-09-15T04:26:34.101Z,95247.06
2022-09-15T04:29:04.586Z,95241.44
2022-09-15T04:31:33.554Z,95235.34
2022-09-15T04:34:01.331Z,95240.22
2022-09-15T04:36:29.607Z,95237.56
2022-09-15T04:38:56.821Z,95237.09
2022-09-15T04:41:25.941Z,95237.75
2022-09-15T04:43:53.066Z,95251.81
2022-09-15T04:46:21.242Z,95254.03
2022-09-15T04:48:49.103Z,95264.84
2022-09-15T04:51:20.804Z,95277.16
2022-09-15T04:53:48.479Z,95279.34
2022-09-15T04:56:19.019Z,95280.00
2022-09-15T04:58:54.100Z,95292.31
2022-09-15T05:01:30.308Z,95299.81
2022-09-15T05:03:57.647Z,95296.53
2022-09-15T05:06:27.360Z,95300.59
2022-09-15T05:08:56.842Z,95310.88
2022-09-15T05:11:24.769Z,95300.88
2022-09-15T05:13:52.042Z,95297.97
2022-09-15T05:16:24.925Z,95300.28
2022-09-15T05:18:54.340Z,95306.69
2022-09-15T05:21:23.420Z,95315.09
2022-09-15T05:23:52.277Z,95324.63
2022-09-15T05:26:21.769Z,95341.84
2022-09-15T05:28:48.821Z,95338.09
2022-09-15T05:31:27.591Z,95337.44
2022-09-15T05:33:55.142Z,95349.63
2022-09-15T05:36:25.726Z,95350.88
2022-09-15T05:38:55.879Z,95349.50
2022-09-15T05:41:23.619Z,95344.00
2022-09-15T05:43:51.220Z,95350.25
2022-09-15T05:46:19.833Z,95359.16
2022-09-15T05:48:47.355Z,95363.81
2022-09-15T05:51:15.060Z,95355.25
2022-09-15T05:53:42.206Z,95364.00
2022-09-15T05:56:13.539Z,95367.56
2022-09-15T05:58:42.002Z,95368.03
2022-09-15T06:01:13.799Z,95384.56
2022-09-15T06:03:41.187Z,95386.13
2022-09-15T06:06:08.260Z,95387.53
2022-09-15T06:08:51.869Z,95381.91
2022-09-15T06:11:24.140Z,95384.38
2022-09-15T06:13:51.219Z,95364.38
2022-09-15T06:16:21.296Z,95365.00
2022-09-15T06:18:49.879Z,95363.91
2022-09-15T06:21:21.919Z,95352.66
2022-09-15T06:24:00.140Z,95356.22
2022-09-15T06:26:28.220Z,95360.59
2022-09-15T06:28:56.340Z,95371.34
2022-09-15T06:31:24.170Z,95388.09
2022-09-15T06:33:53.423Z,95388.53
2022-09-15T06:36:22.688Z,95390.56
2022-09-15T06:38:50.059Z,95376.19
2022-09-15T06:41:17.120Z,95373.84
2022-09-15T06:43:45.271Z,95381.69
2022-09-15T06:46:13.707Z,95379.66
2022-09-15T06:48:44.224Z,95366.81
2022-09-15T06:51:15.179Z,95350.84
2022-09-15T06:53:42.242Z,95362.72
2022-09-15T06:56:12.520Z,95363.03
2022-09-15T06:58:41.080Z,95349.88
2022-09-15T07:01:10.749Z,95343.94
2022-09-15T07:03:39.780Z,95347.19
2022-09-15T07:06:08.719Z,95357.31
2022-09-15T07:08:35.880Z,95347.16
2022-09-15T07:11:02.958Z,95352.53
2022-09-15T07:13:30.539Z,95347.97
2022-09-15T07:16:00.526Z,95344.00
2022-09-15T07:18:27.939Z,95344.91
2022-09-15T07:21:03.579Z,95351.44
2022-09-15T07:23:30.795Z,95356.47
2022-09-15T07:26:09.079Z,95363.16
2022-09-15T07:28:36.859Z,95349.25
2022-09-15T07:31:08.962Z,95359.19
2022-09-15T07:33:37.000Z,95358.97
2022-09-15T07:36:08.481Z,95356.25
2022-09-15T07:38:38.921Z,95364.28
2022-09-15T07:41:17.142Z,95360.69
2022-09-15T07:43:52.899Z,95360.16
2022-09-15T07:46:22.022Z,95355.88
2022-09-15T07:48:50.807Z,95343.63
2022-09-15T07:51:18.559Z,95344.97
2022-09-15T07:53:47.779Z,95342.69
2022-09-15T07:56:17.879Z,95346.88
2022-09-15T07:58:46.039Z,95339.69
2022-09-15T08:01:14.964Z,95336.91
2022-09-15T08:03:43.659Z,95341.03
2022-09-15T08:06:11.201Z,95334.47
2022-09-15T08:08:39.319Z,95320.41
2022-09-15T08:11:09.939Z,95314.38
2022-09-15T08:13:37.641Z,95313.44
2022-09-15T08:16:06.693Z,95313.06
2022-09-15T08:18:34.160Z,95309.38
2022-09-15T08:21:07.640Z,95312.19
2022-09-15T08:23:34.775Z,95317.69
2022-09-15T08:26:02.344Z,95317.81
2022-09-15T08:28:29.499Z,95315.34
2022-09-15T08:31:05.079Z,95311.19
2022-09-15T08:33:32.888Z,95311.81
2022-09-15T08:36:08.459Z,95311.19
2022-09-15T08:38:35.620Z,95301.88
2022-09-15T08:41:30.979Z,95307.53
2022-09-15T08:44:19.819Z,95310.53
2022-09-15T08:46:50.172Z,95301.16
2022-09-15T08:49:47.836Z,95309.69
2022-09-15T08:52:43.067Z,95298.69
2022-09-15T08:55:52.023Z,95290.50
2022-09-15T08:58:28.900Z,95278.78
2022-09-15T09:01:53.323Z,95285.41
2022-09-15T09:04:29.180Z,95271.31
2022-09-15T09:07:14.806Z,95263.31
2022-09-15T09:10:10.779Z,95257.00
2022-09-15T09:12:46.180Z,95254.06
2022-09-15T09:15:32.055Z,95253.41
2022-09-15T09:18:31.140Z,95234.41
2022-09-15T09:21:24.081Z,95231.00
2022-09-15T09:24:06.512Z,95230.66
2022-09-15T09:26:37.019Z,95234.19
2022-09-15T09:29:18.642Z,95230.34
2022-09-15T09:31:51.347Z,95231.19
2022-09-15T09:34:44.379Z,95244.06
2022-09-15T09:37:15.599Z,95236.00
2022-09-15T09:39:42.939Z,95231.53
2022-09-15T09:42:18.727Z,95222.69
2022-09-15T09:44:47.402Z,95227.03
2022-09-15T09:47:15.668Z,95225.41
2022-09-15T09:49:49.708Z,95236.91
2022-09-15T09:52:39.920Z,95242.25
2022-09-15T09:55:19.020Z,95240.31
2022-09-15T09:57:46.119Z,95252.81
2022-09-15T10:00:37.682Z,95254.06
2022-09-15T10:03:21.538Z,95261.63
2022-09-15T10:06:24.539Z,95253.72
2022-09-15T10:08:58.326Z,95264.38
2022-09-15T10:11:47.107Z,95258.50
2022-09-15T10:14:21.121Z,95256.44
2022-09-15T10:16:59.059Z,95251.25
2022-09-15T10:19:28.939Z,95252.16
2022-09-15T10:21:58.299Z,95240.31
2022-09-15T10:24:28.159Z,95241.88
2022-09-15T10:27:16.218Z,95237.34
2022-09-15T10:29:43.780Z,95243.53
2022-09-15T10:32:25.625Z,95247.38
2022-09-15T10:35:06.700Z,95257.34
2022-09-15T10:37:44.039Z,95279.47
2022-09-15T10:40:34.702Z,95295.47
2022-09-15T10:43:23.707Z,95294.97
2022-09-15T10:46:02.003Z,95293.22
2022-09-15T10:48:56.096Z,95287.59
2022-09-15T10:51:58.761Z,95286.09
2022-09-15T10:54:49.186Z,95288.22
2022-09-15T10:57:38.115Z,95289.03
2022-09-15T11:00:12.301Z,95273.94
2022-09-15T11:13:53.413Z,95269.75
2022-09-15T11:16:30.199Z,95258.94
2022-09-15T11:19:29.631Z,95241.16
2022-09-15T11:22:13.780Z,95233.63
2022-09-15T11:24:44.200Z,95242.19
2022-09-15T11:27:14.619Z,95240.28
2022-09-15T11:30:17.786Z,95254.72
2022-09-15T11:32:48.401Z,95274.13
2022-09-15T11:35:37.241Z,95283.22
2022-09-15T11:38:31.022Z,95296.94
2022-09-15T11:41:27.539Z,95309.50
2022-09-15T11:43:57.621Z,95307.28
2022-09-15T11:46:51.835Z,95304.31
2022-09-15T11:49:48.121Z,95299.63
2022-09-15T11:52:41.481Z,95294.59
2022-09-15T11:55:22.062Z,95278.63
2022-09-15T11:58:21.798Z,95246.16
2022-09-15T12:01:12.862Z,95215.38
2022-09-15T12:04:04.326Z,95196.59
2022-09-15T12:06:51.965Z,95176.31
2022-09-15T12:09:20.721Z,95164.78
2022-09-15T12:11:51.838Z,95158.97
2022-09-15T12:14:30.759Z,95161.91
2022-09-15T12:16:59.549Z,95153.31
2022-09-15T12:19:52.559Z,95157.31
2022-09-15T12:22:29.343Z,95151.38
2022-09-15T12:25:04.719Z,95144.50
2022-09-15T12:27:31.919Z,95143.69
2022-09-15T12:30:00.681Z,95140.50
2022-09-15T12:32:32.243Z,95149.00
2022-09-15T12:35:10.208Z,95153.53
2022-09-15T12:37:53.235Z,95152.13
2022-09-15T12:40:41.942Z,95154.91
2022-09-15T12:43:12.840Z,95147.59
2022-09-15T12:45:43.260Z,95149.91
2022-09-15T12:48:23.788Z,95150.81
2022-09-15T12:51:04.373Z,95141.66
2022-09-15T12:56:25.261Z,95144.41
2022-09-15T12:58:54.140Z,95147.47
2022-09-15T13:01:24.667Z,95147.00
2022-09-15T13:03:54.076Z,95150.72
2022-09-15T13:06:28.280Z,95152.69
2022-09-15T13:09:01.603Z,95151.47
2022-09-15T13:11:32.113Z,95158.47
2022-09-15T13:14:07.929Z,95159.00
2022-09-15T13:16:44.020Z,95161.72
2022-09-15T13:19:19.540Z,95184.41
2022-09-15T13:21:54.299Z,95188.94
2022-09-15T13:24:30.699Z,95186.88
2022-09-15T13:26:58.248Z,95183.91
2022-09-15T13:29:29.041Z,95176.13
2022-09-15T13:32:23.619Z,95180.34
2022-09-15T13:35:20.440Z,95190.88
2022-09-15T13:38:29.289Z,95192.88
2022-09-15T13:41:17.140Z,95199.84
2022-09-15T13:44:02.661Z,95186.13
2022-09-15T13:46:57.780Z,95183.47
2022-09-15T13:49:46.482Z,95201.13
2022-09-15T13:52:47.021Z,95207.75
2022-09-15T13:55:21.759Z,95206.53
2022-09-15T14:00:52.102Z,95192.00
2022-09-15T14:03:40.739Z,95187.78
2022-09-15T14:06:12.663Z,95188.50
2022-09-15T14:08:42.084Z,95183.72
2022-09-15T14:11:16.027Z,95192.25
2022-09-15T14:13:48.622Z,95204.28
2022-09-15T14:16:36.979Z,95197.66
2022-09-15T14:19:27.983Z,95216.41
2022-09-15T14:21:58.505Z,95213.97
2022-09-15T14:24:30.987Z,95216.63
2022-09-15T14:27:09.062Z,95211.56
2022-09-15T14:29:40.820Z,95212.50
2022-09-15T14:32:15.322Z,95205.19
2022-09-15T14:34:43.511Z,95208.81
2022-09-15T14:37:27.825Z,95213.56
2022-09-15T14:39:57.510Z,95208.03
2022-09-15T14:42:44.940Z,95210.16
2022-09-15T14:48:01.597Z,95212.38
2022-09-15T14:50:33.304Z,95216.41
2022-09-15T14:53:07.121Z,95224.84
2022-09-15T14:55:55.762Z,95231.47
2022-09-15T14:58:29.380Z,95226.63
2022-09-15T15:00:59.474Z,95222.59
2022-09-15T15:03:53.139Z,95226.97
2022-09-15T15:06:31.127Z,95232.84
2022-09-15T15:09:01.104Z,95240.31
2022-09-15T15:11:31.062Z,95233.81
2022-09-15T15:13:58.181Z,95229.47
2022-09-15T15:16:31.117Z,95221.69
2022-09-15T15:18:58.459Z,95202.25
2022-09-15T15:21:41.919Z,95209.13
2022-09-15T15:24:22.862Z,95206.94
2022-09-15T15:26:50.808Z,95207.28
2022-09-15T15:29:44.284Z,95227.50
2022-09-15T15:32:17.874Z,95227.41
2022-09-15T15:34:53.399Z,95216.19
2022-09-15T15:37:32.762Z,95220.16
2022-09-15T15:40:07.373Z,95213.63
2022-09-15T15:42:34.899Z,95226.94
2022-09-15T15:45:25.936Z,95233.94
2022-09-15T15:47:53.540Z,95232.72
2022-09-15T15:50:27.339Z,95247.72
2022-09-15T15:52:55.260Z,95248.16
2022-09-15T15:55:24.501Z,95232.38
2022-09-15T15:57:53.867Z,95227.78
2022-09-15T16:00:22.522Z,95228.91
2022-09-15T16:02:51.467Z,95241.88
2022-09-15T16:05:20.060Z,95240.84
2022-09-15T16:07:50.659Z,95224.41
2022-09-15T16:10:21.160Z,95217.09
2022-09-15T16:12:48.319Z,95220.63
2022-09-15T16:15:20.820Z,95220.19
2022-09-15T16:17:48.722Z,95242.94
2022-09-15T16:20:17.079Z,95242.81
2022-09-15T16:22:44.527Z,95252.34
2022-09-15T16:25:19.159Z,95251.78
2022-09-15T16:27:46.339Z,95252.88
2022-09-15T16:30:13.456Z,95257.09
2022-09-15T16:32:41.519Z,95255.22
2022-09-15T16:35:24.901Z,95246.00
2022-09-15T16:37:51.947Z,95245.22
2022-09-15T16:40:19.018Z,95241.31
2022-09-15T16:42:47.989Z,95235.69
2022-09-15T16:45:41.760Z,95240.22
2022-09-15T16:48:10.341Z,95235.56
2022-09-15T16:50:39.855Z,95243.97
2022-09-15T16:53:21.679Z,95242.63
2022-09-15T16:55:51.262Z,95229.66
2022-09-15T16:58:20.299Z,95226.56
2022-09-15T17:00:49.347Z,95217.00
2022-09-15T17:03:19.340Z,95214.09
2022-09-15T17:05:50.267Z,95223.31
2022-09-15T17:08:27.462Z,95222.41
2022-09-15T17:10:59.020Z,95212.09
2022-09-15T17:13:30.342Z,95214.78
2022-09-15T17:15:59.203Z,95203.06
2022-09-15T17:18:27.401Z,95202.59
2022-09-15T17:20:54.778Z,95209.56
2022-09-15T17:23:27.983Z,95208.66
2022-09-15T17:25:59.259Z,95205.88
2022-09-15T17:28:29.407Z,95202.63
2022-09-15T17:30:58.855Z,95192.97
2022-09-15T17:33:27.080Z,95188.94
2022-09-15T17:35:54.441Z,95178.16
2022-09-15T17:38:22.199Z,95171.44
2022-09-15T17:40:50.709Z,95158.34
2022-09-15T17:43:19.840Z,95151.78
2022-09-15T17:45:48.589Z,95156.38
2022-09-15T17:48:16.624Z,95167.34
2022-09-15T17:50:45.562Z,95181.63
2022-09-15T17:53:18.780Z,95182.41
2022-09-15T17:55:45.860Z,95196.22
2022-09-15T17:58:13.220Z,95192.44
2022-09-15T18:00:42.981Z,95201.22
2022-09-15T18:03:31.001Z,95206.97
2022-09-15T18:06:00.421Z,95198.28
2022-09-15T18:08:28.141Z,95200.78
2022-09-15T18:10:56.769Z,95203.16
2022-09-15T18:13:27.427Z,95200.03
2022-09-15T18:15:55.042Z,95209.13
2022-09-15T18:18:28.541Z,95198.50
2022-09-15T18:21:01.802Z,95195.50
2022-09-15T18:23:30.741Z,95188.63
2022-09-15T18:25:59.399Z,95183.78
2022-09-15T18:28:28.818Z,95188.63
2022-09-15T18:30:56.486Z,95202.88
2022-09-15T18:33:25.643Z,95207.41
2022-09-15T18:35:55.798Z,95214.13
2022-09-15T18:38:23.479Z,95215.72
2022-09-15T18:40:56.340Z,95219.47
2022-09-15T18:43:26.583Z,95226.53
2022-09-15T18:45:58.656Z,95225.75
2022-09-15T18:48:26.002Z,95222.00
2022-09-15T18:50:53.680Z,95222.00
2022-09-15T18:53:22.407Z,95222.97
2022-09-15T18:55:49.760Z,95224.69
2022-09-15T18:58:17.919Z,95219.38
2022-09-15T19:00:45.879Z,95221.91
2022-09-15T19:03:14.456Z,95223.63
2022-09-15T19:05:41.721Z,95222.56
2022-09-15T19:08:09.500Z,95219.13
2022-09-15T19:10:38.500Z,95228.53
2022-09-15T19:13:05.780Z,95229.63
2022-09-15T19:15:34.783Z,95233.06
2022-09-15T19:18:02.320Z,95240.25
2022-09-15T19:20:29.562Z,95248.38
2022-09-15T19:22:57.842Z,95242.13
2022-09-15T19:25:25.040Z,95248.84
2022-09-15T19:27:52.281Z,95255.59
2022-09-15T19:30:19.261Z,95261.66
2022-09-15T19:32:46.568Z,95280.69
2022-09-15T19:35:13.808Z,95279.78
2022-09-15T19:37:44.979Z,95269.94
2022-09-15T19:40:14.252Z,95281.66
2022-09-15T19:42:43.413Z,95282.59
2022-09-15T19:45:12.279Z,95283.38
2022-09-15T19:47:40.719Z,95286.69
2022-09-15T19:50:09.460Z,95282.00
2022-09-15T19:52:36.558Z,95280.44
2022-09-15T19:55:05.379Z,95281.84
2022-09-15T19:57:32.459Z,95278.75
2022-09-15T19:59:59.588Z,95281.88
2022-09-15T20:02:26.617Z,95284.81
2022-09-15T20:04:53.720Z,95294.22
2022-09-15T20:07:20.865Z,95307.16
2022-09-15T20:09:47.860Z,95319.19
2022-09-15T20:12:15.222Z,95316.22
2022-09-15T20:14:42.322Z,95312.31
2022-09-15T20:17:09.309Z,95309.81
2022-09-15T20:19:37.223Z,95303.41
2022-09-15T20:22:04.622Z,95302.03
2022-09-15T20:24:31.659Z,95300.91
2022-09-15T20:26:59.479Z,95314.66
2022-09-15T20:29:26.724Z,95324.34
2022-09-15T20:31:54.279Z,95319.19
2022-09-15T20:34:21.567Z,95318.25
2022-09-15T20:36:49.162Z,95325.56
2022-09-15T20:39:18.966Z,95333.09
2022-09-15T20:41:46.188Z,95340.09
2022-09-15T20:44:14.162Z,95339.63
2022-09-15T20:46:41.491Z,95340.38
2022-09-15T20:49:09.642Z,95352.56
2022-09-15T20:51:36.739Z,95346.81
2022-09-15T20:54:04.456Z,95349.31
2022-09-15T20:56:35.292Z,95349.78
2022-09-15T20:59:04.882Z,95358.03
2022-09-15T21:01:37.263Z,95353.06
2022-09-15T21:04:05.624Z,95356.50
2022-09-15T21:06:33.443Z,95350.09
2022-09-15T21:09:00.605Z,95353.84
2022-09-15T21:11:29.283Z,95353.19
2022-09-15T21:13:57.598Z,95358.19
2022-09-15T21:16:28.019Z,95356.03
2022-09-15T21:18:57.261Z,95360.84
2022-09-15T21:21:26.610Z,95356.03
2022-09-15T21:23:56.101Z,95349.44
2022-09-15T21:26:26.421Z,95346.03
2022-09-15T21:28:55.021Z,95336.03
2022-09-15T21:31:27.978Z,95334.31
2022-09-15T21:33:56.425Z,95339.78
2022-09-15T21:36:28.699Z,95321.69
2022-09-15T21:38:57.779Z,95322.59
2022-09-15T21:41:27.553Z,95323.72
2022-09-15T21:43:55.741Z,95318.88
2022-09-15T21:46:25.738Z,95330.56
2022-09-15T21:48:53.307Z,95343.06
2022-09-15T21:51:25.044Z,95340.84
2022-09-15T21:53:53.681Z,95346.00
2022-09-15T21:56:22.088Z,95355.03
2022-09-15T21:58:49.166Z,95361.91
2022-09-15T22:01:28.238Z,95372.34
2022-09-15T22:03:58.720Z,95383.88
2022-09-15T22:06:30.459Z,95387.16
2022-09-15T22:09:23.519Z,95385.91
2022-09-15T22:11:50.559Z,95393.25
2022-09-15T22:14:18.241Z,95387.16
2022-09-15T22:16:45.417Z,95392.13
2022-09-15T22:19:13.043Z,95395.41
2022-09-15T22:21:42.229Z,95405.22
2022-09-15T22:24:11.630Z,95416.09
2022-09-15T22:26:39.583Z,95421.44
2022-09-15T22:29:06.984Z,95427.53
2022-09-15T22:31:34.286Z,95427.69
2022-09-15T22:34:01.439Z,95434.56
2022-09-15T22:36:30.963Z,95441.13
2022-09-15T22:39:08.540Z,95438.16
2022-09-15T22:41:39.860Z,95442.06
2022-09-15T22:44:16.600Z,95448.94
2022-09-15T22:46:43.617Z,95444.88
2022-09-15T22:49:10.659Z,95443.63
2022-09-15T22:51:37.740Z,95441.91
2022-09-15T22:54:05.462Z,95429.44
2022-09-15T22:56:32.602Z,95441.13
2022-09-15T22:59:00.123Z,95447.03
2022-09-15T23:01:30.193Z,95443.91
2022-09-15T23:03:59.608Z,95440.19
2022-09-15T23:06:29.313Z,95445.78
2022-09-15T23:08:59.102Z,95442.84
2022-09-15T23:11:28.014Z,95447.81
2022-09-15T23:13:55.556Z,95448.59
2022-09-15T23:16:24.449Z,95448.28
2022-09-15T23:18:51.919Z,95453.78
2022-09-15T23:21:19.672Z,95460.03
2022-09-15T23:23:49.276Z,95449.41
2022-09-15T23:26:18.393Z,95435.56
2022-09-15T23:28:45.476Z,95441.47
2022-09-15T23:31:13.368Z,95453.63
2022-09-15T23:33:41.233Z,95456.28
2022-09-15T23:36:13.773Z,95454.22
2022-09-15T23:38:43.045Z,95449.41
2022-09-15T23:41:11.452Z,95458.31
2022-09-15T23:43:38.791Z,95452.41
2022-09-15T23:46:06.511Z,95455.53
2022-09-15T23:48:33.572Z,95456.91
2022-09-15T23:51:00.962Z,95458.78
2022-09-15T23:53:28.792Z,95461.91
2022-09-15T23:55:55.971Z,95466.13
2022-09-15T23:58:23.014Z,95474.53
